Terminal Aerodrome Forecast
Issued by NWS

Home | Current Version | Previous Version | Text Only | Print | Product List | Glossary On
Versions: 1 2 3 4 5 6 7 8 9 10 11 12 13
000
FTUS42 KTBW 221740
TAFLAL
TAF
KLAL 221740Z 2218/2318 15010G15KT 5SM SHRA SCT020 BKN080 OVC110
      TEMPO 2218/2222 5SM SHRA BKN020 BKN100
     FM230100 04006KT P6SM VCSH SCT015 BKN040
     FM230300 35006KT P6SM BKN070=

USA.gov is the U.S. government's official web portal to all federal, state and local government web resources and services.